Terminal Aerodrome Forecast
Issued by NWS

Home | Current Version | Previous Version | Text Only | Print | Product List | Glossary On
Versions: 1 2 3 4 5 6 7 8 9 10 11 12 13 14 15 16 17 18 19 20 21
000
FTUS43 KUNR 241100
TAFGCC
TAF
KGCC 241128Z 2412/2512 22016KT P6SM SCT150
     FM241600 25017KT P6SM FEW150
     FM242000 33017KT P6SM FEW100
     FM250000 36010KT P6SM SKC=

USA.gov is the U.S. government's official web portal to all federal, state and local government web resources and services.